Crossville, TN

10:28 PM CST on December 24, 2014 (GMT -0600)
Crossville City Hall | Change Station
CLOSE
Current Station
Personal Weather Station
Location: Crossville, TN
Elevation: 1867 ft
Nearby Weather Stations

Elev 1867 ft 35.95 °N, 85.03 °W | Updated 6 minutes ago

Rain
Rain
38.4 °F
Feels Like 33 °F
N
8.0
Wind Variable Wind from WNW
Gusts 11.0 mph

Today
High -- | Low -- °F
--% Chance of Precip.
Yesterday
High -- | Low -- °F
Precip. -- in
6:48 AM 4:31 PM
Waxing Crescent, 13% visible
Pressure 29.87 in
Visibility 10.0 miles
Clouds Mostly Cloudy 900 ft
Mostly Cloudy 1400 ft
Overcast 2600 ft
Windchill 33 °F
Dew Point 37 °F
Humidity 93%
Rainfall 0.05 in
Snow Depth Not available.
UV 0 out of 12
Pollen .10 out of 12
Air Quality Not available.
Flu Activity Not available.
SPECI KCSV 250424Z AUTO 26007KT 10SM BKN009 BKN014 OVC026 04/02 A2987 RMK AO2 RAE12 CIG 007V011 P0000 T00390017

More Conditions Fewer Conditions

Pressure 29.87 in
Visibility 10.0 miles
Clouds Mostly Cloudy 900 ft
Mostly Cloudy 1400 ft
Overcast 2600 ft
Windchill 33 °F
Dew Point 37 °F
Humidity 93%
Rainfall 0.05 in
Snow Depth Not available.
UV 0 out of 12
Pollen .10 out of 12
Air Quality Not available.
Flu Activity Not available.
SPECI KCSV 250424Z AUTO 26007KT 10SM BKN009 BKN014 OVC026 04/02 A2987 RMK AO2 RAE12 CIG 007V011 P0000 T00390017

More Conditions Fewer Conditions

10-Day Weather Forecast

Almanac

Astronomy

Dec. 24, 2014 Rise Set
Actual Time
Civil Twilight
Nautical Twilight
Astronomical Twilight
Moon
Length of Visible Light
Length of Day
Tomorrow will be .
, % of the Moon is Illuminated

Today's Extremes

State Highs State Lows

Community

WunderPhotos

Upload Photos

1,780,235 photos uploaded!

WunderBlogs® & News

Nearby

Air Quality

  Air Quality AQ Index Pollutant
Not available.

Snow Depth

Station Depth Elevation

Earthquake Activity

City Distance Mag. Time & Date
Minimum magnitude displayed is 2.5.

Coastal Water Temperatures

Place Temperature

Nearby Weather Stations